createdAt,value
2023-05-19T00:02:05.894Z,7.47
2023-05-19T00:04:33.593Z,7.38
2023-05-19T00:07:01.317Z,6.38
2023-05-19T00:09:28.335Z,6.40
2023-05-19T00:11:56.630Z,6.85
2023-05-19T00:14:23.461Z,6.10
2023-05-19T00:16:50.357Z,6.90
2023-05-19T00:19:17.688Z,7.93
2023-05-19T00:21:44.395Z,6.28
2023-05-19T00:24:11.010Z,7.15
2023-05-19T00:26:37.954Z,6.63
2023-05-19T00:29:06.615Z,5.93
2023-05-19T00:31:34.135Z,6.45
2023-05-19T00:34:01.041Z,6.28
2023-05-19T00:36:27.693Z,6.70
2023-05-19T00:38:58.205Z,5.95
2023-05-19T00:41:24.892Z,6.20
2023-05-19T00:43:51.540Z,5.78
2023-05-19T00:46:19.475Z,7.05
2023-05-19T00:48:46.219Z,6.45
2023-05-19T00:51:16.770Z,7.40
2023-05-19T00:53:48.959Z,6.28
2023-05-19T00:56:16.679Z,7.22
2023-05-19T00:58:44.222Z,6.68
2023-05-19T01:01:12.082Z,6.20
2023-05-19T01:03:40.806Z,6.72
2023-05-19T01:06:07.832Z,7.10
2023-05-19T01:08:37.194Z,6.32
2023-05-19T01:11:05.493Z,8.50
2023-05-19T01:13:32.875Z,10.32
2023-05-19T01:16:10.104Z,9.52
2023-05-19T01:18:58.242Z,8.82
2023-05-19T01:21:36.341Z,8.98
2023-05-19T01:24:23.074Z,8.27
2023-05-19T01:27:12.303Z,7.65
2023-05-19T01:29:54.877Z,7.30
2023-05-19T01:34:49.746Z,6.28
2023-05-19T01:37:17.720Z,6.60
2023-05-19T01:39:46.440Z,6.95
2023-05-19T01:42:15.142Z,6.75
2023-05-19T01:44:42.257Z,6.25
2023-05-19T01:47:09.833Z,7.03
2023-05-19T01:49:36.468Z,6.20
2023-05-19T01:52:04.056Z,6.28
2023-05-19T01:54:30.593Z,5.55
2023-05-19T01:57:25.072Z,6.40
2023-05-19T02:00:05.678Z,5.25
2023-05-19T02:02:54.387Z,6.07
2023-05-19T02:05:38.344Z,5.68
2023-05-19T02:10:37.286Z,7.40
2023-05-19T02:13:06.780Z,6.32
2023-05-19T02:15:42.211Z,6.60
2023-05-19T02:18:12.521Z,6.57
2023-05-19T02:20:39.992Z,6.70
2023-05-19T02:23:07.106Z,7.78
2023-05-19T02:25:33.889Z,7.82
2023-05-19T02:28:00.552Z,8.68
2023-05-19T02:30:32.623Z,10.32
2023-05-19T02:33:00.400Z,9.55
2023-05-19T02:35:27.897Z,9.00
2023-05-19T02:37:54.543Z,7.30
2023-05-19T02:40:21.888Z,7.45
2023-05-19T02:42:49.426Z,5.68
2023-05-19T02:45:16.271Z,6.75
2023-05-19T02:47:43.006Z,6.03
2023-05-19T02:50:09.666Z,7.18
2023-05-19T02:52:36.354Z,6.40
2023-05-19T02:55:02.956Z,7.75
2023-05-19T02:57:31.513Z,7.78
2023-05-19T02:59:58.152Z,8.32
2023-05-19T03:02:24.813Z,7.22
2023-05-19T03:04:51.573Z,6.03
2023-05-19T03:07:18.233Z,6.78
2023-05-19T03:09:44.744Z,6.13
2023-05-19T03:12:11.329Z,7.75
2023-05-19T03:14:38.745Z,9.05
2023-05-19T03:17:08.002Z,6.88
2023-05-19T03:19:34.754Z,7.47
2023-05-19T03:22:01.369Z,6.70
2023-05-19T03:24:28.342Z,8.63
2023-05-19T03:26:55.764Z,8.48
2023-05-19T03:29:22.516Z,6.72
2023-05-19T03:31:49.315Z,7.03
2023-05-19T03:34:16.629Z,6.63
2023-05-19T03:36:44.995Z,6.53
2023-05-19T03:41:42.397Z,10.18
2023-05-19T03:44:09.011Z,10.15
2023-05-19T03:46:35.770Z,10.45
2023-05-19T03:49:22.660Z,9.57
2023-05-19T03:52:27.952Z,8.80
2023-05-19T03:55:11.727Z,9.90
2023-05-19T03:57:39.457Z,8.05
2023-05-19T04:00:07.025Z,9.35
2023-05-19T04:02:38.922Z,9.32
2023-05-19T04:05:08.503Z,12.43
2023-05-19T04:07:36.971Z,8.95
2023-05-19T04:10:05.393Z,10.73
2023-05-19T04:12:32.969Z,10.30
2023-05-19T04:15:00.196Z,9.90
2023-05-19T04:17:27.519Z,7.85
2023-05-19T04:19:55.213Z,10.32
2023-05-19T04:22:22.466Z,9.63
2023-05-19T04:24:50.544Z,9.45
2023-05-19T04:27:18.210Z,10.07
2023-05-19T04:29:46.058Z,10.90
2023-05-19T04:32:17.611Z,10.95
2023-05-19T04:34:47.228Z,10.15
2023-05-19T04:37:20.406Z,13.90
2023-05-19T04:39:48.224Z,12.73
2023-05-19T04:42:19.146Z,10.82
2023-05-19T04:44:46.444Z,10.70
2023-05-19T04:47:14.897Z,10.25
2023-05-19T04:49:42.055Z,9.55
2023-05-19T04:52:13.039Z,11.45
2023-05-19T04:54:41.739Z,10.55
2023-05-19T04:57:10.481Z,12.50
2023-05-19T04:59:39.490Z,12.05
2023-05-19T05:02:07.926Z,12.95
2023-05-19T05:04:36.729Z,12.25
2023-05-19T05:07:03.317Z,10.88
2023-05-19T05:09:29.930Z,11.27
2023-05-19T05:13:52.816Z,10.65
2023-05-19T05:16:19.770Z,10.38
2023-05-19T05:18:46.949Z,9.32
2023-05-19T05:21:14.430Z,11.75
2023-05-19T05:23:41.300Z,9.82
2023-05-19T05:26:16.823Z,11.68
2023-05-19T05:28:44.496Z,12.10
2023-05-19T05:31:11.448Z,11.95
2023-05-19T05:33:39.449Z,10.23
2023-05-19T05:36:06.656Z,10.05
2023-05-19T05:38:34.052Z,10.63
2023-05-19T05:41:02.613Z,14.10
2023-05-19T05:43:29.995Z,10.80
2023-05-19T05:46:00.730Z,11.80
2023-05-19T05:48:27.861Z,11.63
2023-05-19T05:50:56.900Z,11.10
2023-05-19T05:53:32.161Z,12.05
2023-05-19T05:56:01.068Z,10.10
2023-05-19T05:58:37.728Z,11.60
2023-05-19T06:01:05.430Z,10.50
2023-05-19T06:03:33.528Z,9.65
2023-05-19T06:06:05.415Z,12.55
2023-05-19T06:08:32.165Z,10.55
2023-05-19T06:10:58.923Z,11.35
2023-05-19T06:13:26.694Z,10.60
2023-05-19T06:15:53.477Z,12.68
2023-05-19T06:18:24.957Z,10.60
2023-05-19T06:20:52.696Z,11.45
2023-05-19T06:23:19.276Z,10.43
2023-05-19T06:25:46.105Z,11.30
2023-05-19T06:28:13.642Z,12.32
2023-05-19T06:30:40.393Z,11.85
2023-05-19T06:33:29.102Z,12.23
2023-05-19T06:35:56.717Z,10.52
2023-05-19T06:38:23.347Z,11.95
2023-05-19T06:40:50.470Z,13.57
2023-05-19T06:43:17.079Z,13.57
2023-05-19T06:45:55.121Z,12.18
2023-05-19T06:48:24.314Z,13.57
2023-05-19T06:50:50.927Z,14.98
2023-05-19T06:53:19.877Z,13.30
2023-05-19T06:55:58.068Z,11.63
2023-05-19T06:58:28.283Z,12.07
2023-05-19T07:00:55.797Z,13.07
2023-05-19T07:03:26.048Z,13.75
2023-05-19T07:05:54.317Z,14.82
2023-05-19T07:08:20.896Z,12.27
2023-05-19T07:10:47.789Z,12.32
2023-05-19T07:13:15.794Z,10.73
2023-05-19T07:15:42.588Z,12.80
2023-05-19T07:18:12.198Z,11.18
2023-05-19T07:20:38.887Z,11.52
2023-05-19T07:23:05.412Z,11.40
2023-05-19T07:25:33.218Z,11.82
2023-05-19T07:28:00.122Z,11.27
2023-05-19T07:30:31.686Z,11.18
2023-05-19T07:32:58.504Z,13.80
2023-05-19T07:35:26.213Z,12.10
2023-05-19T07:37:52.981Z,13.13
2023-05-19T07:40:19.728Z,13.10
2023-05-19T07:42:46.390Z,13.38
2023-05-19T07:45:12.965Z,11.00
2023-05-19T07:47:39.579Z,13.85
2023-05-19T07:50:06.847Z,11.35
2023-05-19T07:52:33.461Z,14.15
2023-05-19T07:55:00.031Z,12.68
2023-05-19T07:57:26.684Z,13.77
2023-05-19T07:59:53.238Z,12.60
2023-05-19T08:02:19.884Z,12.80
2023-05-19T08:04:46.526Z,13.52
2023-05-19T08:07:13.186Z,12.77
2023-05-19T08:09:39.710Z,15.20
2023-05-19T08:12:06.404Z,14.30
2023-05-19T08:14:34.765Z,14.43
2023-05-19T08:17:01.370Z,14.50
2023-05-19T08:19:27.971Z,15.85
2023-05-19T08:21:55.713Z,13.45
2023-05-19T08:24:22.221Z,13.93
2023-05-19T08:26:51.790Z,13.43
2023-05-19T08:29:18.362Z,14.13
2023-05-19T08:31:44.992Z,13.82
2023-05-19T08:34:11.809Z,14.93
2023-05-19T08:36:38.956Z,14.55
2023-05-19T08:39:05.846Z,15.25
2023-05-19T08:41:32.840Z,13.02
2023-05-19T08:43:59.560Z,13.23
2023-05-19T08:46:26.915Z,13.98
2023-05-19T08:48:58.777Z,12.40
2023-05-19T08:52:02.335Z,11.68
2023-05-19T08:54:38.208Z,12.15
2023-05-19T08:57:05.726Z,12.25
2023-05-19T08:59:32.612Z,13.30
2023-05-19T09:01:59.712Z,13.75
2023-05-19T09:04:29.978Z,14.38
2023-05-19T09:06:56.920Z,16.60
2023-05-19T09:09:23.493Z,16.05
2023-05-19T09:14:11.420Z,15.52
2023-05-19T09:16:38.987Z,16.70
2023-05-19T09:19:07.234Z,15.75
2023-05-19T09:21:33.925Z,17.50
2023-05-19T09:24:07.953Z,15.63
2023-05-19T09:26:39.176Z,16.23
2023-05-19T09:29:16.979Z,17.30
2023-05-19T09:31:50.614Z,15.13
2023-05-19T09:34:18.904Z,15.15
2023-05-19T09:36:49.599Z,15.88
2023-05-19T09:39:17.795Z,16.45
2023-05-19T09:41:45.438Z,13.38
2023-05-19T09:44:21.166Z,11.15
2023-05-19T09:46:52.752Z,15.85
2023-05-19T09:49:31.225Z,12.60
2023-05-19T09:51:59.659Z,12.32
2023-05-19T09:54:31.175Z,12.10
2023-05-19T09:57:01.399Z,14.05
2023-05-19T09:59:32.120Z,14.38
2023-05-19T10:02:00.650Z,14.60
2023-05-19T10:04:29.359Z,15.20
2023-05-19T10:06:59.610Z,13.60
2023-05-19T10:09:29.160Z,14.88
2023-05-19T10:11:57.961Z,14.82
2023-05-19T10:14:26.931Z,16.40
2023-05-19T10:16:55.577Z,15.15
2023-05-19T10:19:24.247Z,15.02
2023-05-19T10:21:51.731Z,15.32
2023-05-19T10:24:19.224Z,15.60
2023-05-19T10:26:51.219Z,17.58
2023-05-19T10:29:25.490Z,17.20
2023-05-19T10:31:54.162Z,17.27
2023-05-19T10:35:15.659Z,15.82
2023-05-19T10:38:27.191Z,15.43
2023-05-19T10:41:11.646Z,13.77
2023-05-19T10:43:41.203Z,15.95
2023-05-19T10:46:07.737Z,14.23
2023-05-19T10:48:37.797Z,14.98
2023-05-19T10:51:05.186Z,14.43
2023-05-19T10:53:32.849Z,13.65
2023-05-19T10:56:04.894Z,15.10
2023-05-19T11:01:14.419Z,14.23
2023-05-19T11:03:48.127Z,13.80
2023-05-19T11:06:18.844Z,14.57
2023-05-19T11:08:45.423Z,13.45
2023-05-19T11:11:14.270Z,15.07
2023-05-19T11:13:46.832Z,16.75
2023-05-19T11:16:14.068Z,14.60
2023-05-19T11:18:40.963Z,16.27
2023-05-19T11:21:07.695Z,14.80
2023-05-19T11:23:38.708Z,14.73
2023-05-19T11:26:07.990Z,15.07
2023-05-19T11:28:35.266Z,14.52
2023-05-19T11:31:02.526Z,14.75
2023-05-19T11:33:32.483Z,14.68
2023-05-19T11:35:59.297Z,14.80
2023-05-19T11:38:28.141Z,15.55
2023-05-19T11:40:57.522Z,15.02
2023-05-19T11:43:25.224Z,16.02
2023-05-19T11:45:53.344Z,16.95
2023-05-19T11:48:23.719Z,16.88
2023-05-19T11:50:51.017Z,17.58
2023-05-19T11:53:22.280Z,18.50
2023-05-19T11:55:52.031Z,19.38
2023-05-19T11:58:26.755Z,15.43
2023-05-19T12:00:54.154Z,17.35
2023-05-19T12:03:28.109Z,17.42
2023-05-19T12:05:59.138Z,16.15
2023-05-19T12:08:27.186Z,16.10
2023-05-19T12:10:54.088Z,14.52
2023-05-19T12:13:22.788Z,17.20
2023-05-19T12:15:52.218Z,19.42
2023-05-19T12:18:19.322Z,18.63
2023-05-19T12:20:46.354Z,20.00
2023-05-19T12:23:14.371Z,18.92
2023-05-19T12:25:41.152Z,18.27
2023-05-19T12:28:09.802Z,20.50
2023-05-19T12:30:36.867Z,20.23
2023-05-19T12:33:03.869Z,21.15
2023-05-19T12:35:35.984Z,18.55
2023-05-19T12:38:04.635Z,15.82
2023-05-19T12:40:31.800Z,18.77
2023-05-19T12:42:59.308Z,20.52
2023-05-19T12:45:28.122Z,20.52
2023-05-19T12:47:55.010Z,21.58
2023-05-19T12:50:21.674Z,18.08
2023-05-19T12:52:51.799Z,20.02
2023-05-19T12:55:20.544Z,21.77
2023-05-19T12:57:54.663Z,22.00
2023-05-19T13:00:25.791Z,23.58
2023-05-19T13:02:56.329Z,18.70
2023-05-19T13:05:24.863Z,27.60
2023-05-19T13:07:54.511Z,26.33
2023-05-19T13:10:21.353Z,21.83
2023-05-19T13:12:49.846Z,22.95
2023-05-19T13:15:16.557Z,23.17
2023-05-19T13:17:46.478Z,23.50
2023-05-19T13:20:13.446Z,23.70
2023-05-19T13:22:40.337Z,25.73
2023-05-19T13:25:07.604Z,24.30
2023-05-19T13:27:35.289Z,24.88
2023-05-19T13:30:02.478Z,22.35
2023-05-19T13:32:31.936Z,25.30
2023-05-19T13:34:59.228Z,25.45
2023-05-19T13:37:25.871Z,24.17
2023-05-19T13:39:52.678Z,26.20
2023-05-19T13:42:19.435Z,25.60
2023-05-19T13:44:46.690Z,24.75
2023-05-19T13:47:13.556Z,24.30
2023-05-19T13:49:41.324Z,25.95
2023-05-19T13:52:10.278Z,23.45
2023-05-19T13:54:37.147Z,24.02
2023-05-19T13:57:03.880Z,25.40
2023-05-19T13:59:30.851Z,22.15
2023-05-19T14:01:57.736Z,21.77
2023-05-19T14:04:24.473Z,20.65
2023-05-19T14:06:51.140Z,22.95
2023-05-19T14:09:17.809Z,25.23
2023-05-19T14:11:44.426Z,25.15
2023-05-19T14:14:11.591Z,22.58
2023-05-19T14:16:38.805Z,24.13
2023-05-19T14:19:05.665Z,21.00
2023-05-19T14:21:32.658Z,22.63
2023-05-19T14:23:59.559Z,21.70
2023-05-19T14:26:27.523Z,22.77
2023-05-19T14:28:57.026Z,24.15
2023-05-19T14:31:24.226Z,22.73
2023-05-19T14:33:51.444Z,22.55
2023-05-19T14:36:21.053Z,25.55
2023-05-19T14:38:50.037Z,24.88
2023-05-19T14:41:16.625Z,20.83
2023-05-19T14:43:43.275Z,25.23
2023-05-19T14:46:09.980Z,22.67
2023-05-19T14:48:36.656Z,24.90
2023-05-19T14:51:03.313Z,23.88
2023-05-19T14:53:30.079Z,26.90
2023-05-19T14:55:56.635Z,23.95
2023-05-19T14:58:28.712Z,25.20
2023-05-19T15:03:08.204Z,24.42
2023-05-19T15:05:35.102Z,27.00
2023-05-19T15:08:02.043Z,26.13
2023-05-19T15:10:31.909Z,25.67
2023-05-19T15:13:00.249Z,26.33
2023-05-19T15:15:27.199Z,29.55
2023-05-19T15:17:53.853Z,27.95
2023-05-19T15:20:20.483Z,30.58
2023-05-19T15:22:46.992Z,33.50
2023-05-19T15:25:13.596Z,29.73
2023-05-19T15:27:40.113Z,29.60
2023-05-19T15:30:07.177Z,30.63
2023-05-19T15:32:33.878Z,31.67
2023-05-19T15:35:00.685Z,29.23
2023-05-19T15:37:27.550Z,26.80
2023-05-19T15:39:59.281Z,30.85
2023-05-19T15:42:26.276Z,28.35
2023-05-19T15:44:52.807Z,29.02
2023-05-19T15:47:19.485Z,30.00
2023-05-19T15:49:46.061Z,30.83
2023-05-19T15:52:12.687Z,30.60
2023-05-19T15:54:39.237Z,30.02
2023-05-19T15:57:05.970Z,32.45
2023-05-19T15:59:32.519Z,32.92
2023-05-19T16:01:59.254Z,31.58
2023-05-19T16:04:25.873Z,30.60
2023-05-19T16:06:52.484Z,30.65
2023-05-19T16:09:19.243Z,33.95
2023-05-19T16:11:45.814Z,31.10
2023-05-19T16:14:12.470Z,30.77
2023-05-19T16:16:39.141Z,29.17
2023-05-19T16:19:05.952Z,29.05
2023-05-19T16:21:32.628Z,27.77
2023-05-19T16:23:59.258Z,30.98
2023-05-19T16:26:26.316Z,32.58
2023-05-19T16:28:52.868Z,29.27
2023-05-19T16:31:19.539Z,33.35
2023-05-19T16:33:46.281Z,33.85
2023-05-19T16:36:12.948Z,33.17
2023-05-19T16:38:39.523Z,32.78
2023-05-19T16:41:10.799Z,28.48
2023-05-19T16:43:37.547Z,28.80
2023-05-19T16:46:05.226Z,29.50
2023-05-19T16:48:31.931Z,31.52
2023-05-19T16:50:59.298Z,33.42
2023-05-19T16:53:26.018Z,33.30
2023-05-19T16:55:52.586Z,31.17
2023-05-19T16:58:19.291Z,29.90
2023-05-19T17:00:45.932Z,29.60
2023-05-19T17:03:12.850Z,28.85
2023-05-19T17:05:41.898Z,30.48
2023-05-19T17:08:08.984Z,35.80
2023-05-19T17:10:36.004Z,36.45
2023-05-19T17:13:02.762Z,36.13
2023-05-19T17:15:33.890Z,37.15
2023-05-19T17:18:00.801Z,40.73
2023-05-19T17:20:27.439Z,37.85
2023-05-19T17:25:12.324Z,37.28
2023-05-19T17:27:39.224Z,40.92
2023-05-19T17:30:07.005Z,39.38
2023-05-19T17:32:38.628Z,40.03
2023-05-19T17:35:06.707Z,35.65
2023-05-19T17:37:33.385Z,34.72
2023-05-19T17:40:00.143Z,34.10
2023-05-19T17:42:27.298Z,34.15
2023-05-19T17:44:54.147Z,31.13
2023-05-19T17:47:20.990Z,25.10
2023-05-19T17:49:47.903Z,23.00
2023-05-19T17:52:16.650Z,26.02
2023-05-19T17:54:43.510Z,26.02
2023-05-19T17:59:24.170Z,25.27
2023-05-19T18:01:51.314Z,26.55
2023-05-19T18:04:18.596Z,29.58
2023-05-19T18:06:48.169Z,28.75
2023-05-19T18:09:16.914Z,25.02
2023-05-19T18:11:43.962Z,30.60
2023-05-19T18:14:10.779Z,28.27
2023-05-19T18:16:37.888Z,31.27
2023-05-19T18:19:04.526Z,34.78
2023-05-19T18:21:31.353Z,34.67
2023-05-19T18:23:57.989Z,35.95
2023-05-19T18:26:24.576Z,37.50
2023-05-19T18:28:51.097Z,32.92
2023-05-19T18:31:19.883Z,36.25
2023-05-19T18:33:47.156Z,36.72
2023-05-19T18:36:16.294Z,32.80
2023-05-19T18:38:42.892Z,36.90
2023-05-19T18:41:12.500Z,35.83
2023-05-19T18:43:39.113Z,35.85
2023-05-19T18:46:06.262Z,34.53
2023-05-19T18:48:36.060Z,35.28
2023-05-19T18:51:03.754Z,37.33
2023-05-19T18:53:34.801Z,34.67
2023-05-19T18:56:02.936Z,34.37
2023-05-19T18:58:32.592Z,35.92
2023-05-19T19:01:02.083Z,35.28
2023-05-19T19:03:29.670Z,36.03
2023-05-19T19:05:59.721Z,33.38
2023-05-19T19:08:26.514Z,30.80
2023-05-19T19:10:54.648Z,31.77
2023-05-19T19:13:22.456Z,31.98
2023-05-19T19:15:49.058Z,32.88
2023-05-19T19:18:15.871Z,26.75
2023-05-19T19:20:42.901Z,27.40
2023-05-19T19:23:09.610Z,27.92
2023-05-19T19:25:36.412Z,29.00
2023-05-19T19:28:03.628Z,27.73
2023-05-19T19:30:30.300Z,29.27
2023-05-19T19:32:57.111Z,29.83
2023-05-19T19:35:23.713Z,28.65
2023-05-19T19:37:51.694Z,28.23
2023-05-19T19:40:18.214Z,28.98
2023-05-19T19:42:44.824Z,32.92
2023-05-19T19:45:13.949Z,34.05
2023-05-19T19:47:42.255Z,30.92
2023-05-19T19:50:12.302Z,33.17
2023-05-19T19:52:39.838Z,33.53
2023-05-19T19:55:06.923Z,30.45
2023-05-19T19:57:34.198Z,33.58
2023-05-19T20:00:07.818Z,30.92
2023-05-19T20:02:41.052Z,33.47
2023-05-19T20:05:12.865Z,35.65
2023-05-19T20:07:39.480Z,35.88
2023-05-19T20:10:06.636Z,36.10
2023-05-19T20:12:33.192Z,32.38
2023-05-19T20:14:59.796Z,32.40
2023-05-19T20:17:26.390Z,37.47
2023-05-19T20:19:53.084Z,36.42
2023-05-19T20:22:19.617Z,37.95
2023-05-19T20:24:46.552Z,35.85
2023-05-19T20:27:13.217Z,38.10
2023-05-19T20:29:39.927Z,38.72
2023-05-19T20:32:06.807Z,34.20
2023-05-19T20:34:33.571Z,35.05
2023-05-19T20:37:00.539Z,31.13
2023-05-19T20:39:27.162Z,28.40
2023-05-19T20:41:53.740Z,27.52
2023-05-19T20:44:20.616Z,29.70
2023-05-19T20:46:47.385Z,29.52
2023-05-19T20:49:14.025Z,33.15
2023-05-19T20:51:40.629Z,32.83
2023-05-19T20:54:07.328Z,36.13
2023-05-19T20:56:34.216Z,34.03
2023-05-19T20:59:00.901Z,33.65
2023-05-19T21:01:29.699Z,33.00
2023-05-19T21:03:56.473Z,28.35
2023-05-19T21:06:23.074Z,33.53
2023-05-19T21:08:50.215Z,35.70
2023-05-19T21:11:16.816Z,34.50
2023-05-19T21:13:44.133Z,36.35
2023-05-19T21:16:10.679Z,33.78
2023-05-19T21:18:40.018Z,36.25
2023-05-19T21:21:06.637Z,36.70
2023-05-19T21:23:33.229Z,36.20
2023-05-19T21:26:00.271Z,36.67
2023-05-19T21:28:26.903Z,35.90
2023-05-19T21:30:53.609Z,37.10
2023-05-19T21:33:20.688Z,38.78
2023-05-19T21:35:47.336Z,40.78
2023-05-19T21:38:24.029Z,37.83
2023-05-19T21:40:51.914Z,37.97
2023-05-19T21:43:19.406Z,37.58
2023-05-19T21:45:46.035Z,36.83
2023-05-19T21:48:13.169Z,40.92
2023-05-19T21:50:39.845Z,41.58
2023-05-19T21:53:06.554Z,33.00
2023-05-19T21:55:33.405Z,37.33
2023-05-19T21:58:01.695Z,33.33
2023-05-19T22:00:32.464Z,34.55
2023-05-19T22:02:59.313Z,36.47
2023-05-19T22:05:26.502Z,34.47
2023-05-19T22:07:53.109Z,35.20
2023-05-19T22:10:19.762Z,34.42
2023-05-19T22:12:46.351Z,36.25
2023-05-19T22:15:15.959Z,40.90
2023-05-19T22:17:42.704Z,33.42
2023-05-19T22:20:09.720Z,37.47
2023-05-19T22:22:36.592Z,37.47
2023-05-19T22:25:03.622Z,40.10
2023-05-19T22:27:30.658Z,37.75
2023-05-19T22:29:57.378Z,40.75
2023-05-19T22:32:24.201Z,41.33
2023-05-19T22:34:51.103Z,36.58
2023-05-19T22:37:17.781Z,38.33
2023-05-19T22:39:44.533Z,36.50
2023-05-19T22:42:11.164Z,35.50
2023-05-19T22:44:37.771Z,36.80
2023-05-19T22:47:13.272Z,36.38
2023-05-19T22:49:40.842Z,36.72
2023-05-19T22:52:10.409Z,36.50
2023-05-19T22:54:38.170Z,31.98
2023-05-19T22:57:05.105Z,34.60
2023-05-19T22:59:31.770Z,35.80
2023-05-19T23:01:58.336Z,33.08
2023-05-19T23:04:25.003Z,32.72
2023-05-19T23:06:51.730Z,33.15
2023-05-19T23:09:18.621Z,29.00
2023-05-19T23:11:46.000Z,32.97
2023-05-19T23:14:12.600Z,31.48
2023-05-19T23:16:39.212Z,34.60
2023-05-19T23:19:06.065Z,30.55
2023-05-19T23:21:32.800Z,29.90
2023-05-19T23:23:59.975Z,32.75
2023-05-19T23:26:27.000Z,32.00
2023-05-19T23:28:53.674Z,32.22
2023-05-19T23:31:20.357Z,32.88
2023-05-19T23:33:47.027Z,35.85
2023-05-19T23:36:13.688Z,35.03
2023-05-19T23:38:40.326Z,33.58
2023-05-19T23:41:06.972Z,33.58
2023-05-19T23:43:33.722Z,35.20
2023-05-19T23:46:00.977Z,32.40
2023-05-19T23:48:31.247Z,31.77
2023-05-19T23:50:58.613Z,30.23
2023-05-19T23:53:25.612Z,33.67
2023-05-19T23:55:52.386Z,27.70
2023-05-19T23:58:19.020Z,30.88
